createdAt,value
2022-12-03T00:00:14.107Z,-3.18
2022-12-03T00:03:01.042Z,-3.18
2022-12-03T00:05:27.841Z,-3.19
2022-12-03T00:07:54.968Z,-3.18
2022-12-03T00:10:21.737Z,-3.18
2022-12-03T00:12:48.462Z,-3.18
2022-12-03T00:15:15.248Z,-3.17
2022-12-03T00:17:42.077Z,-3.17
2022-12-03T00:20:19.117Z,-3.18
2022-12-03T00:22:46.057Z,-3.17
2022-12-03T00:25:12.732Z,-3.15
2022-12-03T00:27:39.553Z,-3.14
2022-12-03T00:30:08.967Z,-3.14
2022-12-03T00:32:35.836Z,-3.15
2022-12-03T00:35:02.618Z,-3.14
2022-12-03T00:37:30.605Z,-3.12
2022-12-03T00:39:57.260Z,-3.13
2022-12-03T00:42:23.949Z,-3.12
2022-12-03T00:44:50.781Z,-3.12
2022-12-03T00:47:17.948Z,-3.12
2022-12-03T00:49:44.737Z,-3.12
2022-12-03T00:52:11.515Z,-3.12
2022-12-03T00:54:38.329Z,-3.11
2022-12-03T00:57:05.196Z,-3.10
2022-12-03T00:59:31.910Z,-3.11
2022-12-03T01:01:58.821Z,-3.10
2022-12-03T01:04:25.671Z,-3.10
2022-12-03T01:06:52.564Z,-3.09
2022-12-03T01:09:19.316Z,-3.10
2022-12-03T01:11:46.132Z,-3.09
2022-12-03T01:14:16.491Z,-3.08
2022-12-03T01:16:43.594Z,-3.08
2022-12-03T01:19:15.080Z,-3.07
2022-12-03T01:21:43.625Z,-3.07
2022-12-03T01:24:11.150Z,-3.09
2022-12-03T01:26:38.304Z,-3.10
2022-12-03T01:29:06.004Z,-3.10
2022-12-03T01:31:51.370Z,-3.10
2022-12-03T01:34:18.172Z,-3.11
2022-12-03T01:36:44.864Z,-3.11
2022-12-03T01:39:11.638Z,-3.11
2022-12-03T01:41:39.367Z,-3.11
2022-12-03T01:44:20.728Z,-3.10
2022-12-03T01:46:48.348Z,-3.11
2022-12-03T01:49:20.161Z,-3.12
2022-12-03T01:51:49.146Z,-3.12
2022-12-03T01:54:20.112Z,-3.12
2022-12-03T01:56:47.283Z,-3.11
2022-12-03T01:59:19.746Z,-3.10
2022-12-03T02:01:47.296Z,-3.10
2022-12-03T02:04:16.580Z,-3.08
2022-12-03T02:06:44.073Z,-3.09
2022-12-03T02:09:13.444Z,-3.09
2022-12-03T02:11:44.767Z,-3.10
2022-12-03T02:14:16.097Z,-3.11
2022-12-03T02:16:44.011Z,-3.11
2022-12-03T02:19:26.366Z,-3.11
2022-12-03T02:22:03.836Z,-3.10
2022-12-03T02:24:33.962Z,-3.10
2022-12-03T02:27:01.151Z,-3.09
2022-12-03T02:29:27.891Z,-3.10
2022-12-03T02:31:54.800Z,-3.08
2022-12-03T02:34:33.880Z,-3.08
2022-12-03T02:37:01.513Z,-3.07
2022-12-03T02:39:28.306Z,-3.05
2022-12-03T02:42:14.436Z,-3.06
2022-12-03T02:44:41.313Z,-3.05
2022-12-03T02:47:08.566Z,-3.05
2022-12-03T02:49:35.368Z,-3.06
2022-12-03T02:52:02.800Z,-3.06
2022-12-03T02:54:29.591Z,-3.04
2022-12-03T02:56:56.411Z,-3.03
2022-12-03T02:59:23.651Z,-3.03
2022-12-03T03:01:50.437Z,-3.03
2022-12-03T03:04:17.424Z,-3.02
2022-12-03T03:06:44.370Z,-3.00
2022-12-03T03:09:11.102Z,-2.98
2022-12-03T03:11:37.920Z,-2.97
2022-12-03T03:14:04.772Z,-2.97
2022-12-03T03:16:33.961Z,-2.96
2022-12-03T03:19:01.787Z,-2.96
2022-12-03T03:21:28.698Z,-2.95
2022-12-03T03:23:55.416Z,-2.95
2022-12-03T03:26:23.026Z,-2.95
2022-12-03T03:28:51.181Z,-2.94
2022-12-03T03:31:22.364Z,-2.92
2022-12-03T03:33:50.264Z,-2.91
2022-12-03T03:36:18.722Z,-2.91
2022-12-03T03:38:45.914Z,-2.90
2022-12-03T03:41:14.497Z,-2.91
2022-12-03T03:43:44.273Z,-2.91
2022-12-03T03:46:11.794Z,-2.92
2022-12-03T03:48:41.514Z,-2.90
2022-12-03T03:51:09.854Z,-2.90
2022-12-03T03:53:39.998Z,-2.92
2022-12-03T03:56:08.983Z,-2.92
2022-12-03T03:58:36.566Z,-2.92
2022-12-03T04:01:03.450Z,-2.92
2022-12-03T04:03:30.352Z,-2.90
2022-12-03T04:05:57.495Z,-2.89
2022-12-03T04:08:24.274Z,-2.89
2022-12-03T04:11:17.510Z,-2.90
2022-12-03T04:13:44.647Z,-2.92
2022-12-03T04:16:11.609Z,-2.93
2022-12-03T04:18:44.352Z,-2.92
2022-12-03T04:21:38.677Z,-2.92
2022-12-03T04:24:08.263Z,-2.93
2022-12-03T04:26:54.513Z,-2.93
2022-12-03T04:29:22.062Z,-2.92
2022-12-03T04:32:07.595Z,-2.93
2022-12-03T04:34:53.300Z,-2.93
2022-12-03T04:37:20.327Z,-2.94
2022-12-03T04:39:47.080Z,-2.93
2022-12-03T04:42:13.994Z,-2.94
2022-12-03T04:44:40.840Z,-2.93
2022-12-03T04:47:18.163Z,-2.92
2022-12-03T04:49:47.251Z,-2.91
2022-12-03T04:52:16.945Z,-2.90
2022-12-03T04:54:44.165Z,-2.89
2022-12-03T04:57:11.229Z,-2.89
2022-12-03T04:59:38.789Z,-2.88
2022-12-03T05:02:06.417Z,-2.89
2022-12-03T05:04:33.588Z,-2.88
2022-12-03T05:07:00.470Z,-2.87
2022-12-03T05:09:27.169Z,-2.83
2022-12-03T05:11:53.956Z,-2.83
2022-12-03T05:14:20.711Z,-2.83
2022-12-03T05:16:47.651Z,-2.81
2022-12-03T05:19:14.558Z,-2.81
2022-12-03T05:21:41.343Z,-2.82
2022-12-03T05:24:08.095Z,-2.85
2022-12-03T05:26:35.026Z,-2.83
2022-12-03T05:29:01.769Z,-2.85
2022-12-03T05:31:28.777Z,-2.86
2022-12-03T05:33:55.597Z,-2.87
2022-12-03T05:36:22.431Z,-2.87
2022-12-03T05:38:49.254Z,-2.87
2022-12-03T05:41:34.675Z,-2.86
2022-12-03T05:44:01.433Z,-2.87
2022-12-03T05:46:28.234Z,-2.88
2022-12-03T05:48:55.102Z,-2.90
2022-12-03T05:51:21.907Z,-2.89
2022-12-03T05:53:48.687Z,-2.91
2022-12-03T05:56:15.374Z,-2.91
2022-12-03T05:58:42.092Z,-2.93
2022-12-03T06:01:08.902Z,-2.94
2022-12-03T06:03:35.715Z,-2.94
2022-12-03T06:06:02.933Z,-2.94
2022-12-03T06:08:29.720Z,-2.94
2022-12-03T06:10:56.432Z,-2.93
2022-12-03T06:13:23.171Z,-2.91
2022-12-03T06:15:49.980Z,-2.88
2022-12-03T06:18:16.968Z,-2.87
2022-12-03T06:20:43.653Z,-2.86
2022-12-03T06:23:10.330Z,-2.85
2022-12-03T06:25:37.151Z,-2.83
2022-12-03T06:28:04.136Z,-2.81
2022-12-03T06:30:31.135Z,-2.83
2022-12-03T06:32:57.911Z,-2.84
2022-12-03T06:35:24.776Z,-2.86
2022-12-03T06:37:51.913Z,-2.86
2022-12-03T06:40:19.245Z,-2.88
2022-12-03T06:42:46.263Z,-2.87
2022-12-03T06:45:13.226Z,-2.89
2022-12-03T06:47:40.083Z,-2.86
2022-12-03T06:50:08.441Z,-2.86
2022-12-03T06:52:37.571Z,-2.86
2022-12-03T06:55:07.583Z,-2.83
2022-12-03T06:57:34.519Z,-2.83
2022-12-03T07:00:01.730Z,-2.82
2022-12-03T07:02:28.704Z,-2.81
2022-12-03T07:04:56.142Z,-2.80
2022-12-03T07:07:23.070Z,-2.78
2022-12-03T07:09:50.445Z,-2.78
2022-12-03T07:12:18.538Z,-2.78
2022-12-03T07:14:45.443Z,-2.79
2022-12-03T07:17:12.291Z,-2.79
2022-12-03T07:19:39.286Z,-2.79
2022-12-03T07:22:06.281Z,-2.79
2022-12-03T07:24:33.281Z,-2.77
2022-12-03T07:27:00.035Z,-2.73
2022-12-03T07:29:26.946Z,-2.69
2022-12-03T07:31:53.774Z,-2.67
2022-12-03T07:34:21.018Z,-2.65
2022-12-03T07:36:47.736Z,-2.65
2022-12-03T07:39:15.167Z,-2.62
2022-12-03T07:41:41.862Z,-2.63
2022-12-03T07:44:14.044Z,-2.65
2022-12-03T07:46:42.678Z,-2.65
2022-12-03T07:49:09.630Z,-2.64
2022-12-03T07:51:36.496Z,-2.63
2022-12-03T07:54:03.664Z,-2.59
2022-12-03T07:56:33.158Z,-2.58
2022-12-03T07:58:59.869Z,-2.58
2022-12-03T08:01:26.734Z,-2.57
2022-12-03T08:03:53.693Z,-2.56
2022-12-03T08:06:20.481Z,-2.53
2022-12-03T08:08:47.280Z,-2.50
2022-12-03T08:11:14.801Z,-2.48
2022-12-03T08:13:41.725Z,-2.46
2022-12-03T08:16:19.422Z,-2.42
2022-12-03T08:18:48.748Z,-2.38
2022-12-03T08:21:18.075Z,-2.35
2022-12-03T08:23:45.119Z,-2.34
2022-12-03T08:26:23.842Z,-2.31
2022-12-03T08:28:52.556Z,-2.29
2022-12-03T08:31:30.903Z,-2.28
2022-12-03T08:34:20.315Z,-2.29
2022-12-03T08:36:50.535Z,-2.29
2022-12-03T08:39:23.879Z,-2.28
2022-12-03T08:42:14.630Z,-2.27
2022-12-03T08:44:41.366Z,-2.27
2022-12-03T08:47:08.215Z,-2.27
2022-12-03T08:49:38.185Z,-2.27
2022-12-03T08:52:15.126Z,-2.26
2022-12-03T08:54:43.196Z,-2.27
2022-12-03T08:57:30.676Z,-2.28
2022-12-03T09:00:14.802Z,-2.23
2022-12-03T09:02:47.090Z,-2.19
2022-12-03T09:05:22.959Z,-2.16
2022-12-03T09:08:08.213Z,-2.14
2022-12-03T09:10:35.430Z,-2.13
2022-12-03T09:13:02.301Z,-2.10
2022-12-03T09:15:29.130Z,-2.06
2022-12-03T09:17:56.150Z,-2.05
2022-12-03T09:20:23.045Z,-2.03
2022-12-03T09:22:50.043Z,-2.01
2022-12-03T09:25:16.688Z,-2.01
2022-12-03T09:27:43.426Z,-1.99
2022-12-03T09:30:10.470Z,-1.94
2022-12-03T09:32:37.351Z,-1.88
2022-12-03T09:35:04.851Z,-1.88
2022-12-03T09:37:31.736Z,-1.90
2022-12-03T09:39:58.514Z,-1.90
2022-12-03T09:42:25.686Z,-1.86
2022-12-03T09:44:53.010Z,-1.83
2022-12-03T09:47:20.403Z,-1.80
2022-12-03T09:49:47.768Z,-1.78
2022-12-03T09:52:22.984Z,-1.79
2022-12-03T09:54:52.431Z,-1.75
2022-12-03T09:57:19.636Z,-1.70
2022-12-03T09:59:46.950Z,-1.63
2022-12-03T10:02:21.211Z,-1.57
2022-12-03T10:04:48.878Z,-1.54
2022-12-03T10:07:16.306Z,-1.53
2022-12-03T10:09:43.146Z,-1.51
2022-12-03T10:12:12.678Z,-1.51
2022-12-03T10:14:42.405Z,-1.50
2022-12-03T10:17:11.070Z,-1.50
2022-12-03T10:19:39.485Z,-1.48
2022-12-03T10:22:06.256Z,-1.46
2022-12-03T10:24:37.251Z,-1.43
2022-12-03T10:27:22.967Z,-1.46
2022-12-03T10:29:55.769Z,-1.46
2022-12-03T10:32:38.478Z,-1.47
2022-12-03T10:35:09.004Z,-1.44
2022-12-03T10:37:36.095Z,-1.40
2022-12-03T10:40:10.278Z,-1.29
2022-12-03T10:42:40.718Z,-1.20
2022-12-03T10:45:07.517Z,-1.18
2022-12-03T10:47:34.448Z,-1.21
2022-12-03T10:50:05.392Z,-1.28
2022-12-03T10:52:32.317Z,-1.35
2022-12-03T10:54:59.405Z,-1.35
2022-12-03T10:57:26.199Z,-1.31
2022-12-03T10:59:53.138Z,-1.29
2022-12-03T11:02:22.865Z,-1.29
2022-12-03T11:04:51.281Z,-1.29
2022-12-03T11:07:20.452Z,-1.30
2022-12-03T11:09:54.819Z,-1.27
2022-12-03T11:12:27.486Z,-1.26
2022-12-03T11:14:54.527Z,-1.29
2022-12-03T11:17:50.512Z,-1.32
2022-12-03T11:20:22.964Z,-1.38
2022-12-03T11:22:50.084Z,-1.39
2022-12-03T11:25:26.096Z,-1.34
2022-12-03T11:28:11.376Z,-1.30
2022-12-03T11:30:50.211Z,-1.26
2022-12-03T11:33:27.949Z,-1.20
2022-12-03T11:36:07.621Z,-1.21
2022-12-03T11:38:37.466Z,-1.22
2022-12-03T11:41:27.248Z,-1.17
2022-12-03T11:43:56.797Z,-1.19
2022-12-03T11:46:36.137Z,-1.20
2022-12-03T11:49:22.628Z,-1.24
2022-12-03T11:51:49.748Z,-1.27
2022-12-03T11:54:20.968Z,-1.30
2022-12-03T11:56:49.398Z,-1.34
2022-12-03T11:59:17.716Z,-1.36
2022-12-03T12:01:45.659Z,-1.35
2022-12-03T12:04:26.812Z,-1.31
2022-12-03T12:06:54.683Z,-1.24
2022-12-03T12:09:51.968Z,-1.17
2022-12-03T12:12:28.544Z,-1.17
2022-12-03T12:14:55.474Z,-1.16
2022-12-03T12:17:36.056Z,-1.17
2022-12-03T12:20:26.482Z,-1.16
2022-12-03T12:22:54.761Z,-1.19
2022-12-03T12:25:37.250Z,-1.25
2022-12-03T12:28:03.998Z,-1.31
2022-12-03T12:30:30.763Z,-1.34
2022-12-03T12:33:22.952Z,-1.39
2022-12-03T12:35:50.477Z,-1.45
2022-12-03T12:38:22.061Z,-1.50
2022-12-03T12:40:49.989Z,-1.51
2022-12-03T12:43:28.893Z,-1.56
2022-12-03T12:46:05.554Z,-1.59
2022-12-03T12:48:40.640Z,-1.60
2022-12-03T12:51:13.315Z,-1.61
2022-12-03T12:53:42.480Z,-1.61
2022-12-03T12:56:29.758Z,-1.60
2022-12-03T12:59:00.662Z,-1.57
2022-12-03T13:01:31.853Z,-1.54
2022-12-03T13:03:59.126Z,-1.51
2022-12-03T13:06:29.616Z,-1.55
2022-12-03T13:08:56.966Z,-1.57
2022-12-03T13:11:36.371Z,-1.58
2022-12-03T13:14:31.269Z,-1.59
2022-12-03T13:17:00.876Z,-1.64
2022-12-03T13:19:39.616Z,-1.65
2022-12-03T13:22:21.200Z,-1.67
2022-12-03T13:24:53.783Z,-1.71
2022-12-03T13:27:28.049Z,-1.75
2022-12-03T13:29:56.907Z,-1.79
2022-12-03T13:32:32.968Z,-1.82
2022-12-03T13:35:06.085Z,-1.83
2022-12-03T13:37:33.380Z,-1.83
2022-12-03T13:40:11.626Z,-1.85
2022-12-03T13:42:38.484Z,-1.87
2022-12-03T13:45:14.236Z,-1.90
2022-12-03T13:47:45.707Z,-1.93
2022-12-03T13:50:21.445Z,-1.97
2022-12-03T13:52:48.917Z,-1.98
2022-12-03T13:55:25.973Z,-1.98
2022-12-03T13:57:53.697Z,-2.00
2022-12-03T14:00:21.101Z,-1.97
2022-12-03T14:02:48.900Z,-1.97
2022-12-03T14:05:15.730Z,-1.98
2022-12-03T14:07:42.454Z,-2.04
2022-12-03T14:10:11.621Z,-2.09
2022-12-03T14:12:38.419Z,-2.13
2022-12-03T14:15:06.261Z,-2.17
2022-12-03T14:17:33.136Z,-2.20
2022-12-03T14:20:01.092Z,-2.22
2022-12-03T14:22:28.337Z,-2.27
2022-12-03T14:24:55.467Z,-2.29
2022-12-03T14:27:24.137Z,-2.30
2022-12-03T14:29:51.424Z,-2.33
2022-12-03T14:32:18.501Z,-2.34
2022-12-03T14:34:45.357Z,-2.36
2022-12-03T14:37:12.208Z,-2.38
2022-12-03T14:39:39.004Z,-2.40
2022-12-03T14:42:14.740Z,-2.43
2022-12-03T14:44:47.371Z,-2.45
2022-12-03T14:47:16.477Z,-2.45
2022-12-03T14:49:44.147Z,-2.46
2022-12-03T14:52:12.511Z,-2.48
2022-12-03T14:54:41.630Z,-2.53
2022-12-03T14:57:09.298Z,-2.57
2022-12-03T14:59:36.314Z,-2.60
2022-12-03T15:02:03.223Z,-2.64
2022-12-03T15:04:30.163Z,-2.65
2022-12-03T15:06:56.913Z,-2.67
2022-12-03T15:09:23.797Z,-2.69
2022-12-03T15:11:50.730Z,-2.72
2022-12-03T15:14:17.609Z,-2.75
2022-12-03T15:16:44.659Z,-2.74
2022-12-03T15:19:18.232Z,-2.74
2022-12-03T15:21:45.550Z,-2.74
2022-12-03T15:24:12.336Z,-2.74
2022-12-03T15:26:39.572Z,-2.75
2022-12-03T15:29:06.306Z,-2.75
2022-12-03T15:31:33.267Z,-2.74
2022-12-03T15:34:00.178Z,-2.73
2022-12-03T15:36:27.285Z,-2.74
2022-12-03T15:38:54.001Z,-2.75
2022-12-03T15:41:21.257Z,-2.73
2022-12-03T15:43:48.426Z,-2.73
2022-12-03T15:46:15.257Z,-2.73
2022-12-03T15:48:42.829Z,-2.72
2022-12-03T15:51:09.830Z,-2.72
2022-12-03T15:53:36.806Z,-2.71
2022-12-03T15:56:03.752Z,-2.70
2022-12-03T15:58:30.551Z,-2.69
2022-12-03T16:00:57.486Z,-2.69
2022-12-03T16:03:24.471Z,-2.68
2022-12-03T16:05:51.200Z,-2.66
2022-12-03T16:08:19.239Z,-2.65
2022-12-03T16:10:46.362Z,-2.63
2022-12-03T16:13:14.017Z,-2.62
2022-12-03T16:15:41.286Z,-2.61
2022-12-03T16:18:08.188Z,-2.58
2022-12-03T16:20:34.948Z,-2.56
2022-12-03T16:23:01.981Z,-2.54
2022-12-03T16:25:28.674Z,-2.52
2022-12-03T16:27:56.080Z,-2.53
2022-12-03T16:30:24.164Z,-2.51
2022-12-03T16:32:51.037Z,-2.50
2022-12-03T16:35:17.881Z,-2.47
2022-12-03T16:37:44.717Z,-2.46
2022-12-03T16:40:11.708Z,-2.44
2022-12-03T16:42:38.472Z,-2.43
2022-12-03T16:45:09.604Z,-2.41
2022-12-03T16:47:36.369Z,-2.40
2022-12-03T16:50:06.941Z,-2.40
2022-12-03T16:52:34.789Z,-2.38
2022-12-03T16:55:01.648Z,-2.37
2022-12-03T16:57:33.506Z,-2.36
2022-12-03T17:00:00.777Z,-2.35
2022-12-03T17:02:27.876Z,-2.35
2022-12-03T17:04:54.661Z,-2.34
2022-12-03T17:07:21.483Z,-2.32
2022-12-03T17:09:48.783Z,-2.30
2022-12-03T17:12:15.683Z,-2.29
2022-12-03T17:14:42.416Z,-2.28
2022-12-03T17:17:09.198Z,-2.26
2022-12-03T17:19:35.947Z,-2.24
2022-12-03T17:22:02.761Z,-2.23
2022-12-03T17:24:29.818Z,-2.21
2022-12-03T17:26:57.107Z,-2.19
2022-12-03T17:29:24.018Z,-2.18
2022-12-03T17:31:51.003Z,-2.17
2022-12-03T17:34:17.817Z,-2.16
2022-12-03T17:36:44.494Z,-2.13
2022-12-03T17:39:11.232Z,-2.11
2022-12-03T17:41:38.070Z,-2.08
2022-12-03T17:44:09.643Z,-2.05
2022-12-03T17:46:38.229Z,-2.02
2022-12-03T17:49:05.576Z,-1.99
2022-12-03T17:51:32.947Z,-1.96
2022-12-03T17:54:00.632Z,-1.93
2022-12-03T17:56:27.388Z,-1.88
2022-12-03T17:58:54.281Z,-1.82
2022-12-03T18:01:22.468Z,-1.79
2022-12-03T18:03:49.189Z,-1.74
2022-12-03T18:06:15.947Z,-1.72
2022-12-03T18:08:42.688Z,-1.67
2022-12-03T18:11:09.662Z,-1.65
2022-12-03T18:13:37.060Z,-1.62
2022-12-03T18:16:04.072Z,-1.60
2022-12-03T18:18:30.933Z,-1.57
2022-12-03T18:21:01.486Z,-1.54
2022-12-03T18:23:28.559Z,-1.52
2022-12-03T18:25:56.574Z,-1.50
2022-12-03T18:28:23.841Z,-1.48
2022-12-03T18:30:52.662Z,-1.47
2022-12-03T18:33:20.800Z,-1.47
2022-12-03T18:35:47.580Z,-1.44
2022-12-03T18:38:17.105Z,-1.43
2022-12-03T18:40:45.728Z,-1.41
2022-12-03T18:43:16.569Z,-1.41
2022-12-03T18:45:43.413Z,-1.40
2022-12-03T18:48:19.970Z,-1.38
2022-12-03T18:50:47.071Z,-1.39
2022-12-03T18:53:16.850Z,-1.39
2022-12-03T18:55:45.876Z,-1.39
2022-12-03T18:58:12.616Z,-1.38
2022-12-03T19:00:39.485Z,-1.37
2022-12-03T19:03:06.799Z,-1.35
2022-12-03T19:05:35.165Z,-1.35
2022-12-03T19:08:02.861Z,-1.34
2022-12-03T19:10:29.896Z,-1.34
2022-12-03T19:12:56.885Z,-1.34
2022-12-03T19:15:24.175Z,-1.33
2022-12-03T19:17:51.260Z,-1.34
2022-12-03T19:20:19.159Z,-1.34
2022-12-03T19:22:46.084Z,-1.34
2022-12-03T19:25:12.822Z,-1.35
2022-12-03T19:27:39.558Z,-1.35
2022-12-03T19:30:07.226Z,-1.36
2022-12-03T19:32:35.707Z,-1.35
2022-12-03T19:35:04.561Z,-1.36
2022-12-03T19:37:33.135Z,-1.35
2022-12-03T19:40:00.469Z,-1.35
2022-12-03T19:42:27.492Z,-1.35
2022-12-03T19:44:55.084Z,-1.35
2022-12-03T19:47:24.014Z,-1.34
2022-12-03T19:49:53.231Z,-1.33
2022-12-03T19:52:20.561Z,-1.34
2022-12-03T19:54:47.467Z,-1.34
2022-12-03T19:57:21.521Z,-1.33
2022-12-03T19:59:50.368Z,-1.33
2022-12-03T20:02:17.265Z,-1.33
2022-12-03T20:04:44.040Z,-1.34
2022-12-03T20:07:11.086Z,-1.34
2022-12-03T20:09:39.049Z,-1.35
2022-12-03T20:12:06.058Z,-1.36
2022-12-03T20:14:33.440Z,-1.36
2022-12-03T20:17:00.403Z,-1.37
2022-12-03T20:19:27.237Z,-1.37
2022-12-03T20:21:57.703Z,-1.37
2022-12-03T20:24:27.665Z,-1.37
2022-12-03T20:26:54.326Z,-1.37
2022-12-03T20:29:21.535Z,-1.38
2022-12-03T20:31:48.228Z,-1.39
2022-12-03T20:34:15.021Z,-1.38
2022-12-03T20:36:43.624Z,-1.38
2022-12-03T20:39:10.384Z,-1.39
2022-12-03T20:41:37.452Z,-1.40
2022-12-03T20:44:06.962Z,-1.39
2022-12-03T20:46:33.728Z,-1.39
2022-12-03T20:49:00.555Z,-1.38
2022-12-03T20:51:29.737Z,-1.37
2022-12-03T20:53:58.012Z,-1.36
2022-12-03T20:56:33.961Z,-1.36
2022-12-03T20:59:07.054Z,-1.35
2022-12-03T21:01:35.372Z,-1.36
2022-12-03T21:04:03.777Z,-1.36
2022-12-03T21:06:31.069Z,-1.36
2022-12-03T21:08:58.599Z,-1.36
2022-12-03T21:11:29.149Z,-1.35
2022-12-03T21:13:57.752Z,-1.35
2022-12-03T21:16:46.026Z,-1.34
2022-12-03T21:19:16.983Z,-1.32
2022-12-03T21:21:43.816Z,-1.30
2022-12-03T21:24:12.753Z,-1.27
2022-12-03T21:26:40.989Z,-1.25
2022-12-03T21:29:08.131Z,-1.24
2022-12-03T21:31:37.006Z,-1.25
2022-12-03T21:34:04.489Z,-1.26
2022-12-03T21:36:31.551Z,-1.26
2022-12-03T21:38:58.297Z,-1.27
2022-12-03T21:41:25.235Z,-1.29
2022-12-03T21:43:52.110Z,-1.30
2022-12-03T21:47:12.529Z,-1.30
2022-12-03T21:49:05.527Z,-1.30
2022-12-03T21:51:32.733Z,-1.30
2022-12-03T21:53:59.460Z,-1.31
2022-12-03T21:56:26.484Z,-1.30
2022-12-03T21:58:54.258Z,-1.28
2022-12-03T22:01:23.686Z,-1.28
2022-12-03T22:03:50.944Z,-1.27
2022-12-03T22:06:18.893Z,-1.25
2022-12-03T22:08:45.850Z,-1.26
2022-12-03T22:11:18.198Z,-1.26
2022-12-03T22:13:45.939Z,-1.26
2022-12-03T22:16:16.279Z,-1.26
2022-12-03T22:18:44.047Z,-1.26
2022-12-03T22:21:13.804Z,-1.25
2022-12-03T22:23:41.043Z,-1.26
2022-12-03T22:26:11.187Z,-1.26
2022-12-03T22:28:42.881Z,-1.26
2022-12-03T22:31:10.623Z,-1.28
2022-12-03T22:33:37.703Z,-1.30
2022-12-03T22:36:21.599Z,-1.30
2022-12-03T22:38:50.101Z,-1.33
2022-12-03T22:41:17.471Z,-1.33
2022-12-03T22:43:45.004Z,-1.34
2022-12-03T22:46:11.920Z,-1.35
2022-12-03T22:48:40.081Z,-1.36
2022-12-03T22:51:13.310Z,-1.37
2022-12-03T22:53:40.108Z,-1.39
2022-12-03T22:56:07.267Z,-1.41
2022-12-03T22:58:34.019Z,-1.43
2022-12-03T23:01:03.086Z,-1.45
2022-12-03T23:03:30.428Z,-1.46
2022-12-03T23:05:57.719Z,-1.46
2022-12-03T23:08:24.503Z,-1.48
2022-12-03T23:10:52.499Z,-1.49
2022-12-03T23:13:20.072Z,-1.49
2022-12-03T23:15:51.872Z,-1.49
2022-12-03T23:18:19.464Z,-1.51
2022-12-03T23:20:48.830Z,-1.49
2022-12-03T23:23:17.314Z,-1.49
2022-12-03T23:25:44.583Z,-1.48
2022-12-03T23:28:11.906Z,-1.47
2022-12-03T23:30:39.393Z,-1.46
2022-12-03T23:33:06.205Z,-1.46
2022-12-03T23:35:33.157Z,-1.46
2022-12-03T23:37:59.893Z,-1.46
2022-12-03T23:40:26.628Z,-1.46
2022-12-03T23:42:53.572Z,-1.46
2022-12-03T23:45:20.323Z,-1.46
2022-12-03T23:47:46.991Z,-1.45
2022-12-03T23:50:13.729Z,-1.44
2022-12-03T23:52:40.507Z,-1.43
2022-12-03T23:55:07.558Z,-1.42
2022-12-03T23:57:34.219Z,-1.42
